Time;durP1;ratioP1;P1;durP2;ratioP2;P2;SDS_P1;SDS_P2;PMS_P1;PMS_P2;Temp;Humidity;BMP_temperature;BMP_pressure;BME280_temperature;BME280_humidity;BME280_pressure;Samples;Min_cycle;Max_cycle;Signal;HPM_P1;HPM_P2
2023/10/26 00:01:26;;;;;;;17.77;15.98;;;;;;;11.70;99.41;99396.44;3601953;39;20126;-64
2023/10/26 00:03:51;;;;;;;16.55;14.85;;;;;;;11.64;98.79;99397.88;3591396;39;20058;-64
2023/10/26 00:06:17;;;;;;;16.55;14.85;;;;;;;11.25;98.46;99345.75;3602207;39;20055;-67
2023/10/26 00:08:43;;;;;;;16.58;14.82;;;;;;;11.51;98.66;99389.16;3603441;39;20070;-66
2023/10/26 00:11:08;;;;;;;17.02;15.20;;;;;;;11.57;98.33;99419.06;3600727;39;20318;-67
2023/10/26 00:13:34;;;;;;;17.88;15.32;;;;;;;11.65;98.98;99415.72;3602484;39;20303;-66
2023/10/26 00:15:59;;;;;;;17.88;15.98;;;;;;;11.26;97.98;99356.38;3598278;39;20051;-64
2023/10/26 00:18:25;;;;;;;16.67;14.98;;;;;;;11.64;98.30;99419.41;3601139;39;20348;-64
2023/10/26 00:20:59;;;;;;;17.10;15.35;;;;;;;11.58;97.51;99418.09;3601007;39;20054;-65
2023/10/26 00:23:25;;;;;;;16.25;14.57;;;;;;;11.59;97.63;99422.50;3595192;39;20054;-64
2023/10/26 00:25:51;;;;;;;17.67;15.82;;;;;;;11.53;97.52;99412.25;3596273;39;20051;-64
2023/10/26 00:28:17;;;;;;;17.15;15.45;;;;;;;11.58;97.79;99431.56;3597389;39;20070;-63
2023/10/26 00:30:42;;;;;;;17.75;15.70;;;;;;;11.56;97.76;99432.69;3597171;39;20053;-63
2023/10/26 00:33:08;;;;;;;17.15;15.45;;;;;;;11.11;97.53;99358.56;3596048;39;20058;-65
2023/10/26 00:35:34;;;;;;;17.50;15.82;;;;;;;11.55;98.18;99437.22;3597002;39;20047;-65
2023/10/26 00:38:00;;;;;;;17.48;15.55;;;;;;;11.57;98.20;99439.75;3595488;39;20086;-64
2023/10/26 00:40:25;;;;;;;16.83;14.80;;;;;;;11.57;98.04;99445.13;3597117;39;20058;-64
2023/10/26 00:42:51;;;;;;;17.95;15.45;;;;;;;11.55;97.97;99449.81;3595674;39;20128;-63
2023/10/26 00:45:18;;;;;;;17.33;15.60;;;;;;;11.53;97.87;99446.41;3597775;39;20071;-64
2023/10/26 00:47:44;;;;;;;16.75;14.93;;;;;;;11.54;98.10;99448.94;3597833;39;20090;-64
2023/10/26 00:50:10;;;;;;;16.27;14.68;;;;;;;11.55;98.18;99456.06;3596155;39;20050;-64
2023/10/26 00:52:38;;;;;;;16.83;15.23;;;;;;;11.54;97.91;99453.47;3599931;39;20049;-64
2023/10/26 00:55:07;;;;;;;16.20;14.60;;;;;;;11.54;97.64;99461.56;3598858;39;20129;-64
2023/10/26 00:57:35;;;;;;;16.17;14.30;;;;;;;11.55;97.50;99457.91;3601344;39;20043;-63
2023/10/26 01:00:02;;;;;;;13.93;12.52;;;;;;;11.51;97.22;99453.75;3602828;39;20058;-64
2023/10/26 01:02:29;;;;;;;13.73;12.32;;;;;;;11.54;96.37;99461.56;3599457;39;20056;-64
2023/10/26 01:04:54;;;;;;;13.50;12.10;;;;;;;11.52;96.26;99464.41;3598285;39;20189;-64
2023/10/26 01:07:20;;;;;;;13.82;12.43;;;;;;;11.21;95.71;99411.56;3600263;39;20048;-63
2023/10/26 01:09:47;;;;;;;12.85;11.55;;;;;;;11.54;96.13;99464.25;3587291;39;20062;-64
2023/10/26 01:12:13;;;;;;;13.32;12.02;;;;;;;11.56;95.81;99459.59;3596669;39;20043;-66
2023/10/26 01:14:39;;;;;;;15.13;12.45;;;;;;;11.57;96.10;99463.97;3599829;39;20087;-66
2023/10/26 01:17:05;;;;;;;13.10;11.85;;;;;;;11.54;96.01;99458.88;3597374;39;20108;-66
2023/10/26 01:19:50;;;;;;;13.63;12.23;;;;;;;11.24;96.42;99406.75;3598993;39;20051;-66
2023/10/26 01:22:16;;;;;;;13.63;12.23;;;;;;;11.47;95.93;99441.56;3596987;39;20387;-66
2023/10/26 01:24:41;;;;;;;15.20;12.85;;;;;;;11.59;96.12;99459.31;3600091;39;20048;-64
2023/10/26 01:27:07;;;;;;;13.00;11.70;;;;;;;11.58;96.05;99458.47;3596498;39;20063;-63
2023/10/26 01:29:33;;;;;;;14.00;12.63;;;;;;;11.57;96.65;99456.75;3597129;39;20385;-64
2023/10/26 01:31:59;;;;;;;14.27;12.77;;;;;;;11.55;96.24;99468.66;3596194;39;20058;-64
2023/10/26 01:34:25;;;;;;;14.15;12.75;;;;;;;11.52;96.97;99464.41;3599694;39;20052;-64
2023/10/26 01:36:51;;;;;;;15.00;13.50;;;;;;;11.52;96.48;99466.25;3598575;39;20128;-64
2023/10/26 01:39:17;;;;;;;14.85;13.35;;;;;;;11.51;97.52;99464.50;3598589;39;20052;-64
2023/10/26 01:41:44;;;;;;;13.93;12.60;;;;;;;11.47;97.05;99455.84;3596398;39;20040;-64
2023/10/26 01:44:10;;;;;;;16.33;14.63;;;;;;;11.47;97.26;99460.41;3595787;39;20052;-65
2023/10/26 01:46:35;;;;;;;15.45;13.43;;;;;;;11.01;96.98;99389.09;3596436;39;20078;-64
2023/10/26 01:49:02;;;;;;;15.23;13.57;;;;;;;11.39;97.10;99466.47;3599202;39;20048;-65
2023/10/26 01:51:28;;;;;;;15.20;13.60;;;;;;;11.37;96.87;99466.56;3598939;39;20052;-64
2023/10/26 01:53:54;;;;;;;17.13;14.77;;;;;;;11.33;97.92;99465.16;3598412;39;20066;-65
2023/10/26 01:56:19;;;;;;;15.32;13.73;;;;;;;10.94;97.91;99404.88;3596361;39;20140;-64
2023/10/26 01:58:45;;;;;;;15.80;14.20;;;;;;;11.31;97.76;99467.09;3596813;39;20058;-64
2023/10/26 02:01:12;;;;;;;16.60;14.90;;;;;;;11.30;97.97;99476.16;3595589;39;20055;-64
2023/10/26 02:03:38;;;;;;;15.75;14.05;;;;;;;11.26;98.06;99465.78;3595467;39;20060;-64
2023/10/26 02:06:04;;;;;;;16.55;14.77;;;;;;;10.75;97.97;99373.38;3597608;39;20379;-65
2023/10/26 02:08:30;;;;;;;17.08;15.27;;;;;;;11.24;98.07;99457.88;3595916;39;20501;-66
2023/10/26 02:10:55;;;;;;;17.25;15.45;;;;;;;11.24;98.78;99455.19;3598503;39;20071;-66
2023/10/26 02:13:21;;;;;;;17.45;15.55;;;;;;;11.23;98.20;99458.88;3586330;40;20060;-66
2023/10/26 02:15:47;;;;;;;16.10;14.40;;;;;;;11.17;97.54;99447.78;3593655;39;20139;-66
2023/10/26 02:18:13;;;;;;;16.25;14.65;;;;;;;11.11;98.21;99454.53;3599394;39;20043;-66
2023/10/26 02:20:38;;;;;;;16.90;15.20;;;;;;;11.02;98.13;99445.41;3598740;39;20047;-66
2023/10/26 02:23:04;;;;;;;17.35;14.63;;;;;;;11.01;97.70;99449.09;3597719;39;20349;-66
2023/10/26 02:25:31;;;;;;;17.30;15.50;;;;;;;10.59;97.92;99389.09;3599076;39;20055;-67
2023/10/26 02:27:57;;;;;;;16.90;14.82;;;;;;;10.92;98.05;99449.88;3601122;39;20051;-66
2023/10/26 02:30:23;;;;;;;16.63;14.93;;;;;;;10.87;98.45;99444.88;3601110;39;20068;-66
2023/10/26 02:32:49;;;;;;;15.95;14.40;;;;;;;10.72;98.27;99418.47;3595231;39;21409;-66
2023/10/26 02:35:16;;;;;;;20.33;18.13;;;;;;;10.79;97.56;99447.38;3600562;39;20056;-66
2023/10/26 02:37:42;;;;;;;16.17;14.48;;;;;;;10.68;97.55;99436.69;3595071;39;20483;-66
2023/10/26 02:40:11;;;;;;;18.70;15.18;;;;;;;10.34;97.68;99380.44;3594792;39;20060;-66
2023/10/26 02:42:38;;;;;;;16.15;14.35;;;;;;;10.61;97.92;99440.88;3595364;39;20043;-66
2023/10/26 02:45:07;;;;;;;16.25;14.63;;;;;;;10.19;97.67;99379.84;3597422;39;20044;-66
2023/10/26 02:47:32;;;;;;;15.88;14.20;;;;;;;10.58;97.90;99446.50;3601057;39;20118;-66
2023/10/26 02:49:58;;;;;;;18.65;14.05;;;;;;;10.47;98.41;99434.00;3595435;39;20067;-66
2023/10/26 02:52:24;;;;;;;19.50;14.57;;;;;;;10.48;98.73;99445.59;3598792;39;20064;-66
2023/10/26 02:54:49;;;;;;;15.35;13.68;;;;;;;10.49;98.82;99452.66;3594411;39;20067;-65
2023/10/26 02:57:15;;;;;;;15.88;14.18;;;;;;;10.05;98.68;99381.97;3595034;39;20039;-66
2023/10/26 02:59:41;;;;;;;18.52;14.90;;;;;;;10.03;98.29;99386.63;3596243;39;20351;-66
2023/10/26 03:02:07;;;;;;;16.33;14.18;;;;;;;10.37;99.06;99452.72;3597300;39;20059;-65
2023/10/26 03:04:37;;;;;;;18.25;15.30;;;;;;;10.34;98.51;99444.03;3585310;39;20047;-67
2023/10/26 03:07:03;;;;;;;15.93;14.05;;;;;;;10.25;98.50;99432.19;3596921;39;20054;-67
2023/10/26 03:09:29;;;;;;;17.10;14.43;;;;;;;10.24;98.98;99433.16;3596417;39;20064;-65
2023/10/26 03:11:55;;;;;;;16.35;14.25;;;;;;;10.03;98.55;99408.09;3596326;39;20124;-65
2023/10/26 03:14:21;;;;;;;14.98;13.43;;;;;;;10.20;98.70;99447.81;3596439;39;20058;-65
2023/10/26 03:16:47;;;;;;;17.17;14.55;;;;;;;10.17;98.52;99448.94;3597120;39;20395;-66
2023/10/26 03:19:13;;;;;;;16.63;14.82;;;;;;;10.15;98.61;99456.28;3600028;39;20051;-65
2023/10/26 03:21:39;;;;;;;18.00;15.35;;;;;;;10.13;99.27;99457.38;3594955;39;20382;-65
2023/10/26 03:24:05;;;;;;;18.15;15.73;;;;;;;10.10;98.96;99446.88;3594025;39;20055;-64
2023/10/26 03:26:31;;;;;;;18.45;15.02;;;;;;;10.08;99.28;99454.19;3591189;39;20070;-62
2023/10/26 03:28:57;;;;;;;17.92;15.10;;;;;;;9.59;99.13;99375.88;3589542;39;20074;-64
2023/10/26 03:31:22;;;;;;;19.63;15.57;;;;;;;9.65;99.23;99390.63;3603690;39;20054;-65
2023/10/26 03:33:49;;;;;;;18.92;14.77;;;;;;;9.97;99.17;99447.88;3603375;39;20058;-65
2023/10/26 03:36:19;;;;;;;19.75;15.43;;;;;;;9.95;99.05;99451.66;3599987;39;20401;-65
2023/10/26 03:38:47;;;;;;;18.20;14.52;;;;;;;9.92;98.10;99455.44;3593098;39;20116;-65
2023/10/26 03:41:13;;;;;;;19.10;14.15;;;;;;;9.88;98.95;99437.91;3603738;39;20104;-66
2023/10/26 03:43:39;;;;;;;17.33;15.00;;;;;;;9.42;98.58;99362.94;3602732;39;20065;-65
2023/10/26 03:46:05;;;;;;;15.95;14.35;;;;;;;9.80;98.15;99439.47;3600027;39;20290;-65
2023/10/26 03:48:34;;;;;;;17.05;14.02;;;;;;;9.76;98.21;99441.56;3601508;39;20063;-66
2023/10/26 03:51:00;;;;;;;17.95;15.15;;;;;;;9.76;98.29;99438.88;3600480;39;20051;-65
2023/10/26 03:53:26;;;;;;;17.75;14.27;;;;;;;9.73;98.63;99423.03;3602799;39;20047;-65
2023/10/26 03:55:52;;;;;;;17.95;15.05;;;;;;;9.27;98.21;99346.28;3592512;39;20387;-65
2023/10/26 03:58:18;;;;;;;16.20;14.45;;;;;;;9.66;98.08;99416.47;3601498;39;20079;-65
2023/10/26 04:00:45;;;;;;;18.67;15.18;;;;;;;9.68;99.34;99419.88;3601341;39;20047;-66
2023/10/26 04:03:11;;;;;;;19.15;15.32;;;;;;;9.60;98.77;99407.06;3593227;39;20051;-65
2023/10/26 04:05:36;;;;;;;18.48;14.45;;;;;;;9.66;98.58;99411.09;3602135;39;20055;-65
2023/10/26 04:08:04;;;;;;;17.33;14.77;;;;;;;9.66;98.29;99419.16;3602413;39;20055;-65
2023/10/26 04:10:29;;;;;;;17.05;15.25;;;;;;;9.66;98.60;99416.47;3602277;39;20287;-64
2023/10/26 04:12:55;;;;;;;17.50;13.82;;;;;;;9.68;98.54;99414.53;3601070;39;20060;-64
2023/10/26 04:15:21;;;;;;;16.33;14.63;;;;;;;9.69;99.14;99405.47;3596942;39;20047;-64
2023/10/26 04:17:46;;;;;;;18.30;15.30;;;;;;;9.71;98.86;99406.22;3602061;39;20124;-64
2023/10/26 04:20:13;;;;;;;21.98;16.17;;;;;;;9.72;99.59;99410.59;3598714;39;20051;-63
2023/10/26 04:22:39;;;;;;;21.40;16.75;;;;;;;9.68;99.29;99404.63;3600818;39;20058;-64
2023/10/26 04:25:05;;;;;;;23.38;18.17;;;;;;;9.75;100.00;99421.09;3600585;39;20063;-66
2023/10/26 04:27:32;;;;;;;38.65;18.25;;;;;;;9.34;99.38;99350.16;3602112;39;20051;-65
2023/10/26 04:29:58;;;;;;;26.90;19.35;;;;;;;9.70;99.91;99421.44;3601586;39;20368;-65
2023/10/26 04:32:24;;;;;;;37.70;17.95;;;;;;;9.77;100.00;99421.81;3600134;39;20047;-65
2023/10/26 04:34:50;;;;;;;32.83;18.42;;;;;;;9.77;100.00;99429.88;3591657;39;20208;-66
2023/10/26 04:37:15;;;;;;;34.35;17.15;;;;;;;9.76;100.00;99430.84;3601917;39;20322;-64
2023/10/26 04:39:43;;;;;;;40.65;17.90;;;;;;;9.30;100.00;99346.03;3598206;39;20055;-64
2023/10/26 04:42:13;;;;;;;31.42;16.88;;;;;;;9.73;100.00;99417.66;3588291;39;20058;-64
2023/10/26 04:44:39;;;;;;;31.92;16.25;;;;;;;9.75;100.00;99423.78;3600518;39;21613;-64
2023/10/26 04:47:05;;;;;;;29.02;16.45;;;;;;;9.74;100.00;99422.91;3601777;39;20043;-64
2023/10/26 04:49:33;;;;;;;36.67;16.60;;;;;;;9.73;100.00;99423.03;3601123;39;20264;-64
2023/10/26 04:52:00;;;;;;;31.30;15.98;;;;;;;9.73;100.00;99423.88;3601218;39;20124;-64
2023/10/26 04:54:27;;;;;;;25.45;15.57;;;;;;;9.70;100.00;99416.06;3599878;39;20050;-64
2023/10/26 04:56:53;;;;;;;24.20;16.60;;;;;;;9.70;100.00;99412.53;3597878;39;20143;-64
2023/10/26 04:59:19;;;;;;;19.60;17.30;;;;;;;9.70;100.00;99418.75;3601320;39;20394;-64
2023/10/26 05:01:45;;;;;;;26.92;17.52;;;;;;;9.70;100.00;99416.06;3599985;39;20127;-65
2023/10/26 05:04:10;;;;;;;28.55;15.93;;;;;;;9.70;100.00;99417.91;3600349;39;20062;-65
2023/10/26 05:06:36;;;;;;;23.02;15.25;;;;;;;9.16;100.00;99333.72;3592186;39;20078;-65
2023/10/26 05:09:03;;;;;;;28.10;16.42;;;;;;;9.34;100.00;99355.53;3601702;39;20055;-64
2023/10/26 05:11:29;;;;;;;24.45;16.48;;;;;;;9.62;100.00;99405.13;3599767;39;20043;-65
2023/10/26 05:13:55;;;;;;;21.27;16.27;;;;;;;9.66;100.00;99416.47;3601775;39;20065;-65
2023/10/26 05:16:20;;;;;;;27.23;15.43;;;;;;;9.66;100.00;99403.91;3588622;39;20055;-66
2023/10/26 05:18:46;;;;;;;20.10;15.88;;;;;;;9.70;100.00;99404.50;3599137;39;20275;-66
2023/10/26 05:21:12;;;;;;;24.77;16.95;;;;;;;9.26;100.00;99323.97;3599787;39;20059;-66
2023/10/26 05:23:40;;;;;;;36.90;17.90;;;;;;;9.75;100.00;99400.47;3599894;39;20081;-67
2023/10/26 05:26:06;;;;;;;29.40;18.85;;;;;;;9.72;100.00;99395.34;3601461;39;20066;-67
2023/10/26 05:28:32;;;;;;;29.58;18.02;;;;;;;9.82;100.00;99400.81;3600988;39;20121;-67
2023/10/26 05:30:58;;;;;;;34.08;18.08;;;;;;;9.82;100.00;99402.66;3599497;39;20100;-67
2023/10/26 05:33:23;;;;;;;39.55;15.55;;;;;;;9.83;100.00;99394.50;3600652;39;20059;-67
2023/10/26 05:35:49;;;;;;;38.22;16.48;;;;;;;9.78;100.00;99396.69;3598452;39;20518;-67
2023/10/26 05:38:18;;;;;;;27.38;16.15;;;;;;;9.79;100.00;99397.53;3598131;39;20067;-67
2023/10/26 05:40:54;;;;;;;38.25;16.15;;;;;;;9.78;100.00;99399.38;3603833;39;20085;-67
2023/10/26 05:43:20;;;;;;;36.28;15.88;;;;;;;9.77;100.00;99397.69;3602720;39;20063;-67
2023/10/26 05:45:45;;;;;;;27.23;15.77;;;;;;;9.76;100.00;99404.84;3601509;39;20309;-67
2023/10/26 05:48:11;;;;;;;20.33;14.20;;;;;;;9.72;100.00;99406.09;3601624;39;20083;-67
2023/10/26 05:50:41;;;;;;;23.40;15.23;;;;;;;9.68;100.00;99398.41;3599699;39;20051;-66
2023/10/26 05:53:08;;;;;;;24.35;14.48;;;;;;;9.64;100.00;99402.31;3601924;39;20058;-67
2023/10/26 05:55:34;;;;;;;17.33;13.85;;;;;;;9.59;100.00;99396.47;3602994;39;20046;-66
2023/10/26 05:58:02;;;;;;;19.40;13.82;;;;;;;9.13;100.00;99311.66;3602366;39;20052;-65
2023/10/26 06:00:28;;;;;;;22.48;13.85;;;;;;;9.22;100.00;99330.53;3592174;39;20457;-65
2023/10/26 06:02:53;;;;;;;21.02;14.82;;;;;;;9.02;100.00;99299.97;3602452;39;20066;-65
2023/10/26 06:05:19;;;;;;;19.35;15.18;;;;;;;9.00;100.00;99295.72;3591099;39;20448;-66
2023/10/26 06:07:44;;;;;;;32.10;14.70;;;;;;;9.43;100.00;99381.63;3602700;39;20086;-65
2023/10/26 06:10:11;;;;;;;27.98;14.52;;;;;;;9.05;100.00;99313.13;3598163;39;20055;-66
2023/10/26 06:12:38;;;;;;;20.75;15.20;;;;;;;9.52;100.00;99385.38;3601768;39;20051;-67
2023/10/26 06:15:04;;;;;;;24.15;16.55;;;;;;;9.54;100.00;99386.94;3603046;39;20051;-67
2023/10/26 06:17:30;;;;;;;28.05;15.35;;;;;;;9.56;100.00;99383.31;3602958;39;20071;-65
2023/10/26 06:19:56;;;;;;;29.42;16.85;;;;;;;9.52;100.00;99383.56;3602745;39;20414;-66
2023/10/26 06:22:21;;;;;;;32.83;17.67;;;;;;;9.58;100.00;99392.94;3608505;39;20099;-66
2023/10/26 06:24:47;;;;;;;32.83;16.25;;;;;;;9.57;100.00;99387.69;3592133;39;20051;-66
2023/10/26 06:27:13;;;;;;;25.15;16.95;;;;;;;9.56;100.00;99384.16;3603953;39;20059;-66
2023/10/26 06:29:39;;;;;;;24.20;17.15;;;;;;;9.57;100.00;99385.84;3603161;39;20051;-67
2023/10/26 06:32:05;;;;;;;30.30;17.27;;;;;;;9.60;100.00;99384.75;3603393;39;20051;-66
2023/10/26 06:34:31;;;;;;;30.08;17.35;;;;;;;9.61;100.00;99375.72;3601099;39;20058;-66
2023/10/26 06:36:56;;;;;;;30.55;17.40;;;;;;;9.63;100.00;99380.00;3600720;39;20060;-66
2023/10/26 06:39:22;;;;;;;30.58;17.67;;;;;;;9.65;100.00;99380.72;3605683;39;20074;-65
2023/10/26 06:41:48;;;;;;;35.17;17.65;;;;;;;9.69;100.00;99394.75;3602310;39;20059;-65
2023/10/26 06:44:13;;;;;;;26.27;17.00;;;;;;;9.69;100.00;99394.75;3601531;39;20411;-64
2023/10/26 06:46:39;;;;;;;35.67;16.85;;;;;;;9.16;100.00;99312.25;3600332;39;20051;-65
2023/10/26 06:49:05;;;;;;;50.45;37.88;;;;;;;9.69;100.00;99384.00;3595024;39;20047;-64
2023/10/26 06:51:30;;;;;;;93.78;56.80;;;;;;;9.70;100.00;99393.75;3602120;39;20545;-64
2023/10/26 06:53:56;;;;;;;32.00;17.95;;;;;;;9.68;100.00;99382.31;3602040;39;20070;-64
2023/10/26 06:56:22;;;;;;;27.45;17.27;;;;;;;9.65;100.00;99378.06;3600511;39;20051;-63
2023/10/26 06:58:47;;;;;;;27.00;17.30;;;;;;;9.26;100.00;99312.38;3599774;39;20119;-64
2023/10/26 07:01:13;;;;;;;24.65;17.63;;;;;;;9.70;100.00;99386.56;3601590;39;20094;-64
2023/10/26 07:03:39;;;;;;;34.97;17.35;;;;;;;9.67;100.00;99380.59;3601153;39;20092;-64
2023/10/26 07:06:06;;;;;;;24.15;17.17;;;;;;;9.71;100.00;99382.06;3595125;39;20050;-64
2023/10/26 07:08:33;;;;;;;23.52;16.83;;;;;;;9.70;100.00;99369.63;3601167;39;20059;-66
2023/10/26 07:11:04;;;;;;;20.75;16.85;;;;;;;9.69;100.00;99378.66;3604337;39;20336;-65
2023/10/26 07:13:30;;;;;;;32.97;15.85;;;;;;;9.17;100.00;99286.34;3600476;39;20043;-66
2023/10/26 07:15:59;;;;;;;21.27;16.67;;;;;;;9.72;100.00;99373.03;3601200;39;20130;-65
2023/10/26 07:18:26;;;;;;;24.13;16.95;;;;;;;9.76;100.00;99382.53;3602072;39;20482;-66
2023/10/26 07:20:52;;;;;;;30.98;15.65;;;;;;;9.73;100.00;99390.84;3602052;39;20078;-66
2023/10/26 07:23:18;;;;;;;21.98;17.42;;;;;;;9.74;100.00;99387.19;3600552;39;20051;-65
2023/10/26 07:25:44;;;;;;;31.52;15.88;;;;;;;9.75;100.00;99381.69;3599009;39;20051;-66
2023/10/26 07:28:11;;;;;;;23.15;16.50;;;;;;;9.43;100.00;99325.28;3602327;39;20101;-66
2023/10/26 07:30:43;;;;;;;27.40;16.25;;;;;;;9.74;100.00;99381.81;3602117;39;20044;-66
2023/10/26 07:33:09;;;;;;;33.33;16.65;;;;;;;9.77;100.00;99386.94;3604369;39;20110;-66
2023/10/26 07:35:40;;;;;;;25.33;16.20;;;;;;;9.29;100.00;99304.97;3603297;39;20047;-66
2023/10/26 07:38:07;;;;;;;34.30;21.45;;;;;;;9.79;100.00;99376.06;3601524;39;20233;-65
2023/10/26 07:40:33;;;;;;;24.30;15.82;;;;;;;9.87;100.00;99387.03;3601683;39;20310;-66
2023/10/26 07:42:59;;;;;;;22.48;16.40;;;;;;;9.88;100.00;99378.84;3597609;39;20083;-66
2023/10/26 07:45:25;;;;;;;24.45;16.25;;;;;;;9.88;100.00;99368.09;3599673;39;20119;-63
2023/10/26 07:47:51;;;;;;;21.73;16.63;;;;;;;9.89;100.00;99391.28;3598676;39;20177;-64
2023/10/26 07:50:19;;;;;;;23.05;17.45;;;;;;;9.93;100.00;99390.06;3592714;39;20472;-64
2023/10/26 07:52:46;;;;;;;30.40;17.98;;;;;;;9.98;100.00;99389.69;3600238;39;20049;-64
2023/10/26 07:55:12;;;;;;;35.58;19.15;;;;;;;10.00;100.00;99391.25;3601677;39;20056;-64
2023/10/26 07:57:38;;;;;;;25.17;17.63;;;;;;;9.50;100.00;99306.88;3601189;39;20067;-64
2023/10/26 08:00:07;;;;;;;27.80;17.85;;;;;;;10.06;100.00;99397.13;3600727;39;20386;-64
2023/10/26 08:02:33;;;;;;;26.40;18.67;;;;;;;10.05;100.00;99385.50;3601960;39;20383;-66
2023/10/26 08:04:59;;;;;;;31.13;17.88;;;;;;;10.17;100.00;99402.44;3599237;39;20048;-66
2023/10/26 08:07:25;;;;;;;23.52;17.70;;;;;;;10.14;100.00;99406.22;3600825;39;20404;-64
2023/10/26 08:09:51;;;;;;;25.88;18.00;;;;;;;10.15;100.00;99418.69;3596721;39;20067;-64
2023/10/26 08:12:16;;;;;;;23.77;17.88;;;;;;;10.19;100.00;99405.84;3600201;39;20087;-64
2023/10/26 08:14:42;;;;;;;26.40;19.60;;;;;;;10.21;100.00;99403.88;3599771;39;20058;-64
2023/10/26 08:17:08;;;;;;;25.98;18.42;;;;;;;10.20;100.00;99412.91;3598616;39;20048;-63
2023/10/26 08:19:33;;;;;;;22.92;17.88;;;;;;;10.23;100.00;99404.59;3598943;39;20094;-64
2023/10/26 08:21:59;;;;;;;25.52;18.60;;;;;;;10.25;100.00;99410.72;3599655;39;20043;-64
2023/10/26 08:24:25;;;;;;;26.45;19.23;;;;;;;10.23;100.00;99412.66;3600843;39;20322;-65
2023/10/26 08:26:51;;;;;;;25.77;20.00;;;;;;;10.27;100.00;99411.47;3600690;39;20055;-64
2023/10/26 08:29:17;;;;;;;28.42;20.25;;;;;;;10.36;100.00;99421.44;3597876;39;20070;-64
2023/10/26 08:31:43;;;;;;;32.35;21.25;;;;;;;10.36;100.00;99399.09;3599869;39;20055;-66
2023/10/26 08:34:08;;;;;;;49.53;34.03;;;;;;;10.45;100.00;99406.38;3601002;39;20058;-64
2023/10/26 08:36:34;;;;;;;33.65;22.75;;;;;;;10.37;100.00;99382.88;3602104;39;20051;-64
2023/10/26 08:39:00;;;;;;;35.08;23.42;;;;;;;10.09;100.00;99327.06;3598984;39;20057;-64
2023/10/26 08:41:31;;;;;;;30.15;21.55;;;;;;;10.56;100.00;99405.47;3598832;39;20075;-64
2023/10/26 08:43:58;;;;;;;34.20;21.73;;;;;;;10.60;100.00;99404.25;3601791;39;20068;-64
2023/10/26 08:46:24;;;;;;;30.08;22.42;;;;;;;10.64;100.00;99403.84;3601572;39;20048;-64
2023/10/26 08:48:54;;;;;;;33.42;22.38;;;;;;;10.25;100.00;99332.00;3600023;39;20062;-65
2023/10/26 08:51:20;;;;;;;34.17;24.20;;;;;;;10.77;100.00;99400.13;3600826;39;20063;-66
2023/10/26 08:53:47;;;;;;;36.90;24.40;;;;;;;10.85;100.00;99403.84;3600828;39;20059;-63
2023/10/26 08:56:17;;;;;;;36.97;24.90;;;;;;;10.47;100.00;99331.91;3602463;39;20091;-66
2023/10/26 08:58:43;;;;;;;40.03;25.67;;;;;;;11.03;100.00;99408.63;3600394;39;20051;-66
2023/10/26 09:01:09;;;;;;;34.90;24.83;;;;;;;11.06;100.00;99402.97;3601523;39;20058;-64
2023/10/26 09:03:35;;;;;;;35.42;25.13;;;;;;;11.13;100.00;99401.44;3601026;39;20053;-65
2023/10/26 09:06:00;;;;;;;34.35;23.33;;;;;;;11.19;100.00;99398.22;3599226;39;20491;-66
2023/10/26 09:08:27;;;;;;;38.70;27.48;;;;;;;11.24;99.68;99401.38;3601529;39;20066;-63
2023/10/26 09:10:53;;;;;;;57.42;39.78;;;;;;;10.78;99.64;99313.09;3597902;39;20481;-65
2023/10/26 09:13:29;;;;;;;34.55;25.45;;;;;;;11.36;99.28;99405.69;3596891;39;20059;-64
2023/10/26 09:15:58;;;;;;;30.98;22.92;;;;;;;11.43;99.10;99405.16;3599494;39;20361;-66
2023/10/26 09:18:26;;;;;;;32.65;22.58;;;;;;;11.44;97.85;99390.69;3599492;39;20051;-64
2023/10/26 09:21:03;;;;;;;28.80;22.13;;;;;;;11.45;96.70;99397.78;3599970;39;20330;-66
2023/10/26 09:23:33;;;;;;;30.17;22.73;;;;;;;11.48;97.21;99393.00;3601391;39;20054;-64
2023/10/26 09:26:03;;;;;;;29.98;22.63;;;;;;;11.52;97.90;99398.97;3594894;39;20051;-64
2023/10/26 09:28:46;;;;;;;29.88;21.00;;;;;;;11.49;96.92;99393.84;3598676;39;20068;-64
2023/10/26 09:31:12;;;;;;;31.38;22.98;;;;;;;11.54;96.90;99402.34;3599745;39;20075;-64
2023/10/26 09:33:37;;;;;;;29.20;21.42;;;;;;;11.44;95.47;99390.69;3601313;39;20441;-65
2023/10/26 09:36:15;;;;;;;29.50;21.52;;;;;;;11.47;96.25;99401.19;3603214;39;20048;-64
2023/10/26 09:38:41;;;;;;;28.67;21.10;;;;;;;11.47;96.03;99406.56;3601348;39;20359;-64
2023/10/26 09:41:11;;;;;;;26.38;20.33;;;;;;;11.12;95.82;99354.03;3603755;39;20306;-64
2023/10/26 09:43:40;;;;;;;29.83;21.90;;;;;;;11.39;96.66;99393.81;3602798;39;20057;-64
2023/10/26 09:46:10;;;;;;;28.35;21.50;;;;;;;11.43;96.72;99402.47;3597809;39;20291;-64
2023/10/26 09:48:36;;;;;;;33.15;23.02;;;;;;;11.45;96.61;99393.28;3591270;39;20051;-64
2023/10/26 09:51:04;;;;;;;30.02;22.30;;;;;;;11.51;97.75;99391.84;3601329;39;20051;-64
2023/10/26 09:53:41;;;;;;;30.98;22.65;;;;;;;11.59;97.59;99383.97;3598482;39;20140;-63
2023/10/26 09:56:20;;;;;;;26.92;19.75;;;;;;;11.59;95.63;99378.59;3600922;39;20120;-63
2023/10/26 09:58:46;;;;;;;26.88;20.05;;;;;;;11.61;95.04;99382.00;3598577;39;20064;-66
2023/10/26 10:01:38;;;;;;;25.48;20.48;;;;;;;11.54;93.00;99380.81;3601634;39;20047;-65
2023/10/26 10:04:05;;;;;;;24.65;18.75;;;;;;;11.53;94.30;99379.97;3602604;39;20394;-65
2023/10/26 10:06:51;;;;;;;25.10;18.23;;;;;;;11.49;94.50;99372.31;3603010;39;20051;-65
2023/10/26 10:09:23;;;;;;;26.52;18.85;;;;;;;11.56;94.50;99378.84;3589778;39;20319;-64
2023/10/26 10:12:15;;;;;;;28.27;19.75;;;;;;;11.62;95.72;99367.53;3600305;39;20125;-64
2023/10/26 10:14:47;;;;;;;26.92;20.08;;;;;;;11.68;95.71;99367.00;3599527;39;20050;-63
2023/10/26 10:17:17;;;;;;;26.65;20.05;;;;;;;11.67;95.15;99364.41;3600610;39;20058;-63
2023/10/26 10:19:46;;;;;;;23.90;19.77;;;;;;;11.63;94.49;99363.84;3601351;39;20056;-64
2023/10/26 10:22:37;;;;;;;24.20;19.95;;;;;;;11.64;95.23;99365.56;3602316;39;20291;-64
2023/10/26 10:25:03;;;;;;;23.77;19.35;;;;;;;11.62;94.66;99356.78;3599989;39;20092;-64
2023/10/26 10:27:29;;;;;;;25.85;20.05;;;;;;;11.65;95.06;99352.97;3602457;39;20043;-61
2023/10/26 10:30:05;;;;;;;23.73;19.15;;;;;;;11.66;94.25;99342.03;3602709;39;20442;-63
2023/10/26 10:32:43;;;;;;;23.85;18.98;;;;;;;11.66;94.08;99336.66;3600674;39;20059;-63
2023/10/26 10:35:43;;;;;;;22.80;17.88;;;;;;;11.60;93.94;99342.59;3599782;39;20075;-64
2023/10/26 10:38:15;;;;;;;21.20;16.98;;;;;;;11.56;93.94;99346.56;3601600;39;20095;-66
2023/10/26 10:41:01;;;;;;;20.80;16.52;;;;;;;11.52;93.11;99347.81;3598421;39;20051;-65
2023/10/26 10:43:36;;;;;;;20.08;16.73;;;;;;;11.48;93.35;99341.00;3600270;39;20101;-65
2023/10/26 10:46:26;;;;;;;21.30;16.98;;;;;;;11.47;94.53;99342.84;3597913;39;20051;-66
2023/10/26 10:49:07;;;;;;;21.85;16.50;;;;;;;11.55;95.12;99350.25;3598548;39;20136;-64
2023/10/26 10:51:38;;;;;;;21.08;17.25;;;;;;;11.53;94.85;99330.69;3601796;39;20405;-65
2023/10/26 10:54:07;;;;;;;21.20;16.98;;;;;;;11.65;95.92;99324.19;3596391;39;20044;-64
2023/10/26 10:56:42;;;;;;;22.67;18.10;;;;;;;11.76;95.77;99324.06;3598841;39;20062;-64
2023/10/26 10:59:25;;;;;;;23.30;18.48;;;;;;;11.84;94.93;99324.25;3598178;39;20410;-67
2023/10/26 11:02:13;;;;;;;56.80;40.78;;;;;;;11.91;94.76;99319.16;3602494;39;20208;-65
2023/10/26 11:04:55;;;;;;;21.92;18.08;;;;;;;12.01;94.90;99321.88;3600595;39;20047;-66
2023/10/26 11:07:30;;;;;;;20.98;17.33;;;;;;;12.08;95.41;99326.56;3597710;39;20054;-66
2023/10/26 11:10:02;;;;;;;20.95;17.10;;;;;;;12.16;94.41;99322.28;3601217;39;20121;-66
2023/10/26 11:12:27;;;;;;;20.48;17.08;;;;;;;11.82;94.57;99253.50;3604788;39;20053;-66
2023/10/26 11:14:54;;;;;;;19.17;16.20;;;;;;;12.21;92.63;99320.00;3601273;39;20055;-65
2023/10/26 11:17:24;;;;;;;19.17;15.70;;;;;;;12.24;91.73;99327.81;3596170;39;20153;-66
2023/10/26 11:19:52;;;;;;;18.83;14.80;;;;;;;11.98;92.58;99244.03;3605273;39;20063;-66